Time;durP1;ratioP1;P1;durP2;ratioP2;P2;SDS_P1;SDS_P2;PMS_P1;PMS_P2;Temp;Humidity;BMP_temperature;BMP_pressure;BME280_temperature;BME280_humidity;BME280_pressure;Samples;Min_cycle;Max_cycle;Signal;HPM_P1;HPM_P2
2022/12/30 00:00:15;;;;;;;;;;;18.10;47.70;;;;;;5070834;28;19920;-65
2022/12/30 00:02:41;;;;;;;;;;;18.00;47.80;;;;;;5071667;28;19943;-65
2022/12/30 00:05:07;;;;;;;;;;;17.90;48.00;;;;;;5070403;28;19974;-65
2022/12/30 00:07:34;;;;;;;;;;;17.80;48.10;;;;;;5070576;28;19989;-71
2022/12/30 00:10:00;;;;;;;;;;;17.70;48.30;;;;;;5071661;28;19928;-65
2022/12/30 00:34:58;;;;;;;;;;;16.90;49.80;;;;;;5094962;28;19973;-66
2022/12/30 00:37:23;;;;;;;;;;;16.90;50.00;;;;;;5077706;28;19927;-66
2022/12/30 00:39:49;;;;;;;;;;;16.80;50.10;;;;;;5076937;28;20006;-66
2022/12/30 00:45:00;;;;;;;;;;;16.80;50.30;;;;;;5076939;28;19935;-66
2022/12/30 00:47:25;;;;;;;;;;;16.70;50.30;;;;;;5095235;28;19924;-66
2022/12/30 00:58:07;;;;;;;;;;;16.60;50.70;;;;;;5076595;28;19920;-65
2022/12/30 01:00:33;;;;;;;;;;;16.50;50.70;;;;;;5094684;28;20433;-66
2022/12/30 01:02:58;;;;;;;;;;;16.50;50.80;;;;;;5076772;28;19924;-65
2022/12/30 01:05:24;;;;;;;;;;;16.40;50.80;;;;;;5076785;28;20295;-72
2022/12/30 01:07:49;;;;;;;;;;;16.40;50.90;;;;;;5094422;28;20369;-65
2022/12/30 01:10:15;;;;;;;;;;;16.40;51.00;;;;;;5093951;28;19967;-66
2022/12/30 01:12:40;;;;;;;;;;;16.40;51.10;;;;;;5076217;28;19920;-66
2022/12/30 01:15:06;;;;;;;;;;;16.30;51.10;;;;;;5094179;28;20040;-65
2022/12/30 01:17:33;;;;;;;;;;;16.20;51.10;;;;;;5094343;28;20257;-65
2022/12/30 01:19:59;;;;;;;;;;;16.20;51.10;;;;;;5076610;28;19920;-66
2022/12/30 01:22:24;;;;;;;;;;;16.30;51.30;;;;;;5076826;28;20364;-66
2022/12/30 01:24:50;;;;;;;;;;;16.20;51.30;;;;;;5076576;28;19920;-66
2022/12/30 01:27:15;;;;;;;;;;;16.20;51.30;;;;;;5076180;28;20018;-72
2022/12/30 01:29:42;;;;;;;;;;;16.20;51.40;;;;;;5094462;28;20444;-66
2022/12/30 01:32:08;;;;;;;;;;;16.10;51.40;;;;;;5094282;28;20309;-66
2022/12/30 01:34:34;;;;;;;;;;;16.20;51.50;;;;;;5076554;28;20010;-65
2022/12/30 01:36:59;;;;;;;;;;;16.10;51.50;;;;;;5076419;28;20324;-65
2022/12/30 01:39:25;;;;;;;;;;;16.10;51.60;;;;;;5094222;28;19989;-73
2022/12/30 01:41:52;;;;;;;;;;;16.10;51.60;;;;;;5094142;28;19920;-65
2022/12/30 01:44:37;;;;;;;;;;;16.10;51.60;;;;;;5094218;28;19920;-66
2022/12/30 01:47:03;;;;;;;;;;;16.00;51.60;;;;;;5093642;28;19920;-66
2022/12/30 01:49:28;;;;;;;;;;;16.00;51.70;;;;;;5075957;28;20302;-72
2022/12/30 01:51:54;;;;;;;;;;;15.90;51.70;;;;;;5076109;28;20012;-66
2022/12/30 01:54:19;;;;;;;;;;;15.90;51.80;;;;;;5094061;28;19952;-66
2022/12/30 01:56:45;;;;;;;;;;;15.90;52.00;;;;;;5093878;28;20338;-66
2022/12/30 01:59:15;;;;;;;;;;;15.80;52.00;;;;;;5075690;28;20334;-72
2022/12/30 02:01:41;;;;;;;;;;;15.80;52.00;;;;;;5075583;28;19927;-65
2022/12/30 02:04:09;;;;;;;;;;;15.80;52.00;;;;;;5094011;28;19967;-72
2022/12/30 02:06:49;;;;;;;;;;;15.80;52.10;;;;;;5093693;28;19927;-66
2022/12/30 02:09:14;;;;;;;;;;;15.80;52.00;;;;;;5093293;28;20300;-66
2022/12/30 02:11:40;;;;;;;;;;;15.80;52.00;;;;;;5093330;28;19920;-65
2022/12/30 02:14:06;;;;;;;;;;;15.80;52.00;;;;;;5075753;28;19927;-65
2022/12/30 02:27:57;;;;;;;;;;;15.80;52.00;;;;;;5089954;28;19941;-65
2022/12/30 02:30:30;;;;;;;;;;;15.80;52.00;;;;;;5089760;28;20019;-65
2022/12/30 02:35:48;;;;;;;;;;;15.70;52.00;;;;;;5090028;28;20389;-65
2022/12/30 02:38:20;;;;;;;;;;;15.80;52.10;;;;;;5088576;28;19920;-65
2022/12/30 02:46:26;;;;;;;;;;;15.60;52.10;;;;;;5088302;28;19927;-64
2022/12/30 02:48:53;;;;;;;;;;;15.70;52.20;;;;;;5088687;28;20011;-64
2022/12/30 02:54:05;;;;;;;;;;;15.60;52.30;;;;;;5089272;28;20439;-65
2022/12/30 02:56:30;;;;;;;;;;;15.60;52.30;;;;;;5088310;28;19946;-65
2022/12/30 03:07:36;;;;;;;;;;;15.60;52.40;;;;;;5127497;27;1868879;-65
2022/12/30 03:12:54;;;;;;;;;;;15.50;52.30;;;;;;5089964;28;20432;-71
2022/12/30 03:15:23;;;;;;;;;;;15.50;52.30;;;;;;5088531;28;19920;-64
2022/12/30 03:17:49;;;;;;;;;;;15.80;52.50;;;;;;5105936;28;19920;-64
2022/12/30 03:20:16;;;;;;;;;;;16.20;52.00;;;;;;5088381;28;20020;-72
2022/12/30 03:28:15;;;;;;;;;;;17.80;49.10;;;;;;5088488;28;19927;-65
2022/12/30 03:30:44;;;;;;;;;;;18.60;47.40;;;;;;5088279;28;20338;-65
2022/12/30 03:33:11;;;;;;;;;;;19.40;45.90;;;;;;5089538;28;20003;-65
2022/12/30 03:35:38;;;;;;;;;;;20.20;44.30;;;;;;5089461;28;19921;-65
2022/12/30 03:38:04;;;;;;;;;;;21.00;42.80;;;;;;5089454;28;19924;-65
2022/12/30 03:40:33;;;;;;;;;;;21.70;41.80;;;;;;5089287;28;19924;-65
2022/12/30 03:42:58;;;;;;;;;;;22.30;40.40;;;;;;5088135;28;19928;-72
2022/12/30 03:45:24;;;;;;;;;;;22.90;39.60;;;;;;5087970;28;19921;-65
2022/12/30 03:47:50;;;;;;;;;;;23.30;38.70;;;;;;5088324;28;19921;-65
2022/12/30 03:50:15;;;;;;;;;;;23.70;38.20;;;;;;5087795;28;19921;-65
2022/12/30 03:52:41;;;;;;;;;;;23.90;37.80;;;;;;5089254;28;19974;-71
2022/12/30 03:55:07;;;;;;;;;;;23.90;37.40;;;;;;5088985;28;19921;-65
2022/12/30 03:57:33;;;;;;;;;;;24.00;37.40;;;;;;5087874;28;19920;-66
2022/12/30 03:59:59;;;;;;;;;;;24.00;37.40;;;;;;5087972;28;19920;-65
2022/12/30 04:02:24;;;;;;;;;;;23.90;37.70;;;;;;5089026;28;19921;-65
2022/12/30 04:04:51;;;;;;;;;;;23.70;37.60;;;;;;5088960;28;19920;-65
2022/12/30 04:07:16;;;;;;;;;;;23.70;38.00;;;;;;5088834;28;19927;-65
2022/12/30 04:09:42;;;;;;;;;;;23.50;38.20;;;;;;5087564;28;20275;-65
2022/12/30 04:12:07;;;;;;;;;;;23.30;38.20;;;;;;5104452;28;19977;-65
2022/12/30 04:14:33;;;;;;;;;;;23.20;38.50;;;;;;5090837;28;19931;-65
2022/12/30 04:16:59;;;;;;;;;;;23.00;38.80;;;;;;5109018;28;19924;-72
2022/12/30 04:19:24;;;;;;;;;;;22.80;38.90;;;;;;5109061;28;19920;-72
2022/12/30 04:21:50;;;;;;;;;;;22.60;39.30;;;;;;5108033;28;19920;-65
2022/12/30 04:24:15;;;;;;;;;;;22.40;39.60;;;;;;5076784;28;19942;-65
2022/12/30 04:26:41;;;;;;;;;;;22.20;39.70;;;;;;5077325;28;19927;-65
2022/12/30 04:29:06;;;;;;;;;;;22.00;40.10;;;;;;5077459;28;20410;-65
2022/12/30 04:31:32;;;;;;;;;;;21.80;40.50;;;;;;5076919;28;19924;-65
2022/12/30 04:33:58;;;;;;;;;;;21.60;40.70;;;;;;5077014;28;20012;-65
2022/12/30 04:36:23;;;;;;;;;;;21.30;41.00;;;;;;5077261;28;19924;-65
2022/12/30 04:38:49;;;;;;;;;;;21.10;41.30;;;;;;5095075;28;19927;-65
2022/12/30 04:41:14;;;;;;;;;;;20.90;41.70;;;;;;5094300;28;20340;-64
2022/12/30 04:43:40;;;;;;;;;;;20.70;41.80;;;;;;5094947;28;19926;-64
2022/12/30 04:46:06;;;;;;;;;;;20.50;42.00;;;;;;5077074;28;20330;-65
2022/12/30 04:48:32;;;;;;;;;;;20.40;42.50;;;;;;5095009;28;19920;-65
2022/12/30 04:50:57;;;;;;;;;;;20.20;42.60;;;;;;5076663;28;19924;-65
2022/12/30 04:53:23;;;;;;;;;;;20.10;42.90;;;;;;5094771;28;19924;-65
2022/12/30 04:55:52;;;;;;;;;;;20.00;43.10;;;;;;5076915;28;20287;-65
2022/12/30 04:58:17;;;;;;;;;;;19.90;43.30;;;;;;5094595;28;19920;-65
2022/12/30 05:00:43;;;;;;;;;;;19.70;43.40;;;;;;5094702;28;19982;-65
2022/12/30 05:03:09;;;;;;;;;;;19.70;43.70;;;;;;5094687;28;20006;-71
2022/12/30 05:05:34;;;;;;;;;;;19.60;43.90;;;;;;5094588;28;20332;-71
2022/12/30 05:08:00;;;;;;;;;;;19.50;44.00;;;;;;5076607;28;20344;-65
2022/12/30 05:10:25;;;;;;;;;;;19.40;44.10;;;;;;5076281;28;19985;-65
2022/12/30 05:12:51;;;;;;;;;;;19.30;44.20;;;;;;5094100;28;19924;-65
2022/12/30 05:15:16;;;;;;;;;;;19.30;44.30;;;;;;5076203;28;20011;-65
2022/12/30 05:17:42;;;;;;;;;;;19.20;44.40;;;;;;5094253;28;19967;-65
2022/12/30 05:20:08;;;;;;;;;;;19.10;44.50;;;;;;5094253;28;19970;-65
2022/12/30 05:22:34;;;;;;;;;;;19.10;44.60;;;;;;5076196;28;20010;-65
2022/12/30 05:27:45;;;;;;;;;;;18.80;44.70;;;;;;5093817;28;19916;-65
2022/12/30 05:30:10;;;;;;;;;;;18.80;44.90;;;;;;5076040;28;19923;-65
2022/12/30 05:32:36;;;;;;;;;;;18.70;45.10;;;;;;5075789;28;19920;-65
2022/12/30 05:35:02;;;;;;;;;;;18.60;45.20;;;;;;5092769;28;19951;-65
2022/12/30 05:37:27;;;;;;;;;;;18.50;45.40;;;;;;5075743;28;19920;-65
2022/12/30 05:39:53;;;;;;;;;;;18.40;45.60;;;;;;5075416;28;19924;-65
2022/12/30 05:42:18;;;;;;;;;;;18.30;45.70;;;;;;5075349;28;19968;-65
2022/12/30 05:44:44;;;;;;;;;;;18.10;45.80;;;;;;5075726;28;19973;-72
2022/12/30 05:47:09;;;;;;;;;;;18.10;46.10;;;;;;5093773;28;20312;-65
2022/12/30 05:49:35;;;;;;;;;;;18.00;46.20;;;;;;5093648;28;20353;-65
2022/12/30 05:52:00;;;;;;;;;;;17.90;46.40;;;;;;5093374;28;20064;-71
2022/12/30 05:54:26;;;;;;;;;;;17.80;46.50;;;;;;5075472;28;20041;-65
2022/12/30 05:56:51;;;;;;;;;;;17.70;46.70;;;;;;5075310;28;20014;-65
2022/12/30 05:59:17;;;;;;;;;;;17.60;46.90;;;;;;5093532;28;20014;-71
2022/12/30 06:01:42;;;;;;;;;;;17.50;47.80;;;;;;5075624;28;20363;-65
2022/12/30 06:04:08;;;;;;;;;;;17.40;47.20;;;;;;5075391;28;20010;-72
2022/12/30 06:06:34;;;;;;;;;;;17.30;47.30;;;;;;5075050;28;20015;-65
2022/12/30 06:08:59;;;;;;;;;;;17.20;47.50;;;;;;5075757;28;19916;-69
2022/12/30 06:11:25;;;;;;;;;;;17.10;47.70;;;;;;5071193;28;20003;-65
2022/12/30 06:13:50;;;;;;;;;;;17.10;47.90;;;;;;5070956;28;19920;-65
2022/12/30 06:16:16;;;;;;;;;;;17.00;48.00;;;;;;5071299;28;19916;-65
2022/12/30 06:18:41;;;;;;;;;;;16.90;48.10;;;;;;5071844;28;20019;-65
2022/12/30 06:21:07;;;;;;;;;;;16.90;48.30;;;;;;5072807;28;19928;-65
2022/12/30 06:23:33;;;;;;;;;;;16.80;48.40;;;;;;5071407;28;20349;-72
2022/12/30 06:25:59;;;;;;;;;;;16.80;48.50;;;;;;5071656;28;19952;-65
2022/12/30 06:28:25;;;;;;;;;;;16.70;48.50;;;;;;5071487;28;19921;-65
2022/12/30 06:30:51;;;;;;;;;;;16.60;48.60;;;;;;5072389;28;19924;-72
2022/12/30 06:33:17;;;;;;;;;;;16.60;48.70;;;;;;5072640;28;19927;-71
2022/12/30 06:35:44;;;;;;;;;;;16.60;48.80;;;;;;5072459;28;19930;-65
2022/12/30 06:38:09;;;;;;;;;;;16.50;48.80;;;;;;5072774;28;20239;-65
2022/12/30 06:40:35;;;;;;;;;;;16.50;48.90;;;;;;5072374;28;20270;-65
2022/12/30 06:43:00;;;;;;;;;;;16.40;49.00;;;;;;5071286;28;19927;-65
2022/12/30 06:45:26;;;;;;;;;;;16.40;49.00;;;;;;5070912;28;19921;-65
2022/12/30 06:47:51;;;;;;;;;;;16.30;49.10;;;;;;5072336;28;19927;-71
2022/12/30 06:50:17;;;;;;;;;;;16.30;49.10;;;;;;5070938;28;19999;-72
2022/12/30 06:52:42;;;;;;;;;;;16.30;49.20;;;;;;5071336;28;19924;-65
2022/12/30 06:55:08;;;;;;;;;;;16.30;49.30;;;;;;5072264;28;19963;-71
2022/12/30 06:57:34;;;;;;;;;;;16.20;49.70;;;;;;5072268;28;20463;-65
2022/12/30 07:00:00;;;;;;;;;;;16.20;49.40;;;;;;5072004;28;19926;-65
2022/12/30 07:02:25;;;;;;;;;;;16.20;49.40;;;;;;5072048;28;19927;-65
2022/12/30 07:04:51;;;;;;;;;;;16.20;49.40;;;;;;5072334;28;19924;-65
2022/12/30 07:07:17;;;;;;;;;;;16.10;49.40;;;;;;5071041;28;19921;-65
2022/12/30 07:09:42;;;;;;;;;;;16.10;49.40;;;;;;5072528;28;19977;-71
2022/12/30 07:12:08;;;;;;;;;;;16.10;49.50;;;;;;5083304;28;20457;-68
2022/12/30 07:14:33;;;;;;;;;;;16.10;49.50;;;;;;5074298;28;19920;-65
2022/12/30 07:16:59;;;;;;;;;;;16.00;49.60;;;;;;5074163;28;20376;-65
2022/12/30 07:19:25;;;;;;;;;;;16.00;49.60;;;;;;5074443;28;19965;-65
2022/12/30 07:21:50;;;;;;;;;;;16.00;49.60;;;;;;5074185;28;19920;-65
2022/12/30 07:24:16;;;;;;;;;;;16.00;49.60;;;;;;5092290;28;19921;-64
2022/12/30 07:26:42;;;;;;;;;;;15.90;49.70;;;;;;5074184;28;19927;-65
2022/12/30 07:29:07;;;;;;;;;;;15.90;49.70;;;;;;5074117;28;19920;-65
2022/12/30 07:31:33;;;;;;;;;;;15.90;49.80;;;;;;5092093;28;19932;-70
2022/12/30 07:33:58;;;;;;;;;;;15.90;49.90;;;;;;5092369;28;20368;-65
2022/12/30 07:36:24;;;;;;;;;;;15.90;50.80;;;;;;5074415;28;20378;-65
2022/12/30 07:38:49;;;;;;;;;;;16.40;49.80;;;;;;5092213;28;19920;-72
2022/12/30 07:41:15;;;;;;;;;;;16.70;49.10;;;;;;5074071;28;20015;-65
2022/12/30 07:43:40;;;;;;;;;;;17.20;48.30;;;;;;5092079;28;19920;-65
2022/12/30 07:46:07;;;;;;;;;;;17.80;47.30;;;;;;5092015;28;19927;-65
2022/12/30 07:48:32;;;;;;;;;;;18.50;46.00;;;;;;5092225;28;20031;-65
2022/12/30 07:50:58;;;;;;;;;;;19.30;44.60;;;;;;5057368;28;20066;-72
2022/12/30 07:53:23;;;;;;;;;;;20.10;43.10;;;;;;5074210;28;19920;-65
2022/12/30 07:55:49;;;;;;;;;;;20.80;41.70;;;;;;5074274;28;20545;-65
2022/12/30 07:58:14;;;;;;;;;;;21.50;40.50;;;;;;5093739;28;19927;-65
2022/12/30 08:00:40;;;;;;;;;;;22.20;39.40;;;;;;5077962;28;19922;-64
2022/12/30 08:03:06;;;;;;;;;;;22.80;38.30;;;;;;5077511;28;19946;-65
2022/12/30 08:05:31;;;;;;;;;;;23.20;37.50;;;;;;5095812;28;19928;-65
2022/12/30 08:07:57;;;;;;;;;;;23.70;36.90;;;;;;5095652;28;19920;-65
2022/12/30 08:10:23;;;;;;;;;;;24.00;36.20;;;;;;5095588;28;19924;-65
2022/12/30 08:12:49;;;;;;;;;;;24.30;35.90;;;;;;5077283;28;20384;-65
2022/12/30 08:15:14;;;;;;;;;;;24.60;35.40;;;;;;5077260;28;19935;-65
2022/12/30 08:17:40;;;;;;;;;;;24.70;35.30;;;;;;5095472;28;19920;-65
2022/12/30 08:20:10;;;;;;;;;;;24.70;35.10;;;;;;5077177;28;19927;-72
2022/12/30 08:22:36;;;;;;;;;;;24.80;35.90;;;;;;5095577;28;19924;-65
2022/12/30 08:25:02;;;;;;;;;;;24.70;35.20;;;;;;5077134;28;19972;-65
2022/12/30 08:27:27;;;;;;;;;;;24.60;35.40;;;;;;5077416;28;19920;-65
2022/12/30 08:29:53;;;;;;;;;;;24.50;35.40;;;;;;5095210;28;19924;-65
2022/12/30 08:32:18;;;;;;;;;;;24.30;35.60;;;;;;5076995;28;20405;-71
2022/12/30 08:34:44;;;;;;;;;;;24.10;35.90;;;;;;5095117;28;20434;-65
2022/12/30 08:37:09;;;;;;;;;;;23.90;36.00;;;;;;5077352;28;19920;-65
2022/12/30 08:39:35;;;;;;;;;;;23.70;36.30;;;;;;5076213;28;19920;-65
2022/12/30 08:42:01;;;;;;;;;;;23.50;36.60;;;;;;5094942;28;19927;-65
2022/12/30 08:44:27;;;;;;;;;;;23.30;36.90;;;;;;5077129;28;20428;-65
2022/12/30 08:46:53;;;;;;;;;;;23.10;37.00;;;;;;5077070;28;19920;-65
2022/12/30 08:49:18;;;;;;;;;;;22.90;37.30;;;;;;5076772;28;20395;-72
2022/12/30 08:51:44;;;;;;;;;;;22.60;37.50;;;;;;5061381;28;19928;-65
2022/12/30 08:54:09;;;;;;;;;;;22.40;38.00;;;;;;5071660;28;19929;-65
2022/12/30 08:56:35;;;;;;;;;;;22.10;38.40;;;;;;5074069;28;19921;-71
2022/12/30 08:59:01;;;;;;;;;;;21.90;38.70;;;;;;5056854;28;19920;-65
2022/12/30 09:04:09;;;;;;;;;;;21.40;39.30;;;;;;5126836;27;1886689;-71
2022/12/30 09:06:37;;;;;;;;;;;21.20;39.70;;;;;;5174386;27;20002;-71
2022/12/30 09:09:03;;;;;;;;;;;21.00;40.00;;;;;;5174402;27;19929;-65
2022/12/30 09:11:31;;;;;;;;;;;20.80;40.10;;;;;;5174336;27;19919;-65
2022/12/30 09:13:57;;;;;;;;;;;20.60;40.50;;;;;;5174733;27;19925;-72
2022/12/30 09:16:23;;;;;;;;;;;20.50;40.70;;;;;;5174191;27;19926;-65
2022/12/30 09:18:49;;;;;;;;;;;20.40;40.90;;;;;;5174554;27;19918;-72
2022/12/30 09:21:15;;;;;;;;;;;20.30;41.10;;;;;;5192937;27;19918;-72
2022/12/30 09:23:43;;;;;;;;;;;20.30;41.40;;;;;;5174126;27;20378;-72
2022/12/30 09:26:12;;;;;;;;;;;20.20;41.30;;;;;;5174105;27;19918;-65
2022/12/30 09:28:38;;;;;;;;;;;20.20;41.50;;;;;;5192888;27;20285;-65
2022/12/30 09:31:05;;;;;;;;;;;20.10;41.50;;;;;;5174197;27;20484;-65
2022/12/30 09:33:30;;;;;;;;;;;20.10;41.60;;;;;;5192968;27;19925;-65
2022/12/30 09:35:56;;;;;;;;;;;20.00;41.70;;;;;;5173777;27;20305;-65
2022/12/30 09:38:22;;;;;;;;;;;20.00;41.70;;;;;;5180525;27;19983;-65
2022/12/30 09:46:16;;;;;;;;;;;19.70;41.90;;;;;;5090089;28;19913;-65
2022/12/30 09:48:44;;;;;;;;;;;19.70;41.90;;;;;;5088698;28;19920;-65
2022/12/30 09:51:12;;;;;;;;;;;19.60;42.00;;;;;;5088877;28;20017;-65
2022/12/30 09:53:44;;;;;;;;;;;19.50;42.20;;;;;;5088793;28;19986;-65
2022/12/30 09:58:52;;;;;;;;;;;19.30;42.40;;;;;;5089902;28;19919;-65
2022/12/30 10:01:37;;;;;;;;;;;19.20;42.60;;;;;;5088916;28;19971;-72
2022/12/30 10:04:03;;;;;;;;;;;19.10;42.80;;;;;;5088284;28;19977;-65
2022/12/30 10:06:37;;;;;;;;;;;19.00;43.00;;;;;;5088850;28;19920;-65
2022/12/30 10:09:22;;;;;;;;;;;18.90;43.20;;;;;;5088693;28;19981;-71
2022/12/30 10:14:48;;;;;;;;;;;18.70;43.50;;;;;;5089165;28;19968;-71
2022/12/30 10:20:23;;;;;;;;;;;18.40;43.90;;;;;;5109756;27;19916;-65
2022/12/30 10:22:57;;;;;;;;;;;18.30;44.10;;;;;;5108734;28;19920;-65
2022/12/30 10:25:26;;;;;;;;;;;18.20;44.30;;;;;;5109229;28;20530;-65
2022/12/30 10:27:54;;;;;;;;;;;18.10;44.50;;;;;;5109077;28;20011;-65
2022/12/30 10:30:21;;;;;;;;;;;17.90;44.70;;;;;;5109183;28;19920;-65
2022/12/30 10:32:53;;;;;;;;;;;17.80;44.90;;;;;;5109017;28;20007;-65
2022/12/30 10:35:20;;;;;;;;;;;17.70;45.10;;;;;;5108762;28;19963;-72
2022/12/30 10:37:47;;;;;;;;;;;17.60;45.30;;;;;;5091676;28;19973;-65
2022/12/30 10:40:14;;;;;;;;;;;17.50;45.40;;;;;;5108880;28;20364;-72
2022/12/30 10:42:54;;;;;;;;;;;17.50;45.60;;;;;;5109921;28;19924;-65
2022/12/30 10:50:56;;;;;;;;;;;17.30;46.20;;;;;;5110269;27;20549;-65
2022/12/30 10:53:24;;;;;;;;;;;17.20;46.20;;;;;;5109302;28;20010;-65
2022/12/30 10:55:51;;;;;;;;;;;17.10;46.40;;;;;;5109224;28;19924;-64
2022/12/30 10:58:23;;;;;;;;;;;17.10;46.60;;;;;;5114070;28;19924;-72
2022/12/30 11:00:49;;;;;;;;;;;17.00;46.60;;;;;;5107728;28;19920;-65
2022/12/30 11:03:25;;;;;;;;;;;17.00;46.80;;;;;;5110089;28;20276;-65
2022/12/30 11:05:51;;;;;;;;;;;16.90;46.90;;;;;;5108744;28;19920;-71
2022/12/30 11:08:21;;;;;;;;;;;16.90;47.00;;;;;;5108658;28;19927;-65
2022/12/30 11:11:03;;;;;;;;;;;16.80;47.00;;;;;;5107736;28;19927;-72
2022/12/30 11:16:15;;;;;;;;;;;16.80;47.20;;;;;;5107096;28;20007;-65
2022/12/30 11:18:44;;;;;;;;;;;16.70;47.30;;;;;;5108510;28;19964;-64
2022/12/30 11:21:10;;;;;;;;;;;16.70;47.30;;;;;;5108091;28;19919;-64
2022/12/30 11:23:37;;;;;;;;;;;16.70;47.50;;;;;;5108683;28;20295;-71
2022/12/30 11:26:07;;;;;;;;;;;16.60;47.50;;;;;;5108266;28;19927;-65
2022/12/30 11:28:35;;;;;;;;;;;16.60;47.50;;;;;;5108107;28;19920;-71
2022/12/30 11:31:03;;;;;;;;;;;16.60;47.60;;;;;;5108394;28;19920;-71
2022/12/30 11:33:31;;;;;;;;;;;16.50;47.60;;;;;;5108153;28;19956;-72
2022/12/30 11:36:17;;;;;;;;;;;16.60;47.70;;;;;;5108094;28;20306;-65
2022/12/30 11:38:44;;;;;;;;;;;16.50;47.70;;;;;;5107866;28;20401;-71
2022/12/30 11:51:58;;;;;;;;;;;16.40;47.90;;;;;;5127432;27;1863187;-72
2022/12/30 11:54:26;;;;;;;;;;;16.40;48.00;;;;;;5193244;27;20321;-65
2022/12/30 11:57:11;;;;;;;;;;;16.40;48.10;;;;;;5174319;27;19926;-71
2022/12/30 11:59:38;;;;;;;;;;;16.30;48.90;;;;;;5192895;27;19941;-65
2022/12/30 12:02:24;;;;;;;;;;;16.30;48.20;;;;;;5174251;27;19918;-65
2022/12/30 12:04:49;;;;;;;;;;;16.30;48.20;;;;;;5174431;27;19926;-65
2022/12/30 12:12:43;;;;;;;;;;;16.30;48.30;;;;;;5110210;27;19960;-71
2022/12/30 12:18:07;;;;;;;;;;;16.20;48.40;;;;;;5127755;27;1864133;-64
2022/12/30 12:20:39;;;;;;;;;;;16.20;48.50;;;;;;5174180;27;19926;-64
2022/12/30 12:23:11;;;;;;;;;;;16.20;48.50;;;;;;5174684;27;19925;-64
2022/12/30 12:25:41;;;;;;;;;;;16.20;48.50;;;;;;5174353;27;20377;-71
2022/12/30 12:28:10;;;;;;;;;;;16.20;48.60;;;;;;5174173;27;19918;-64
2022/12/30 12:30:55;;;;;;;;;;;16.10;48.60;;;;;;5174556;27;19929;-65
2022/12/30 12:33:27;;;;;;;;;;;16.10;48.70;;;;;;5173928;27;19923;-65
2022/12/30 12:36:02;;;;;;;;;;;16.10;48.70;;;;;;5174207;27;20270;-66
2022/12/30 12:38:40;;;;;;;;;;;16.10;48.80;;;;;;5174306;27;19943;-65
2022/12/30 12:44:21;;;;;;;;;;;16.00;48.80;;;;;;5110675;27;20267;-65
2022/12/30 12:47:07;;;;;;;;;;;16.00;48.90;;;;;;5108666;28;19920;-64
2022/12/30 12:57:57;;;;;;;;;;;15.90;49.20;;;;;;5089787;28;20364;-65
2022/12/30 13:00:23;;;;;;;;;;;15.90;49.20;;;;;;5071836;28;19924;-65
2022/12/30 13:03:08;;;;;;;;;;;15.80;49.30;;;;;;5088499;28;20264;-65
2022/12/30 13:08:35;;;;;;;;;;;16.10;49.50;;;;;;5110312;27;19919;-65
2022/12/30 13:11:05;;;;;;;;;;;16.50;48.80;;;;;;5108815;28;20019;-66
2022/12/30 13:16:15;;;;;;;;;;;17.60;47.40;;;;;;5090015;28;19941;-67
2022/12/30 13:18:43;;;;;;;;;;;18.30;46.10;;;;;;5088231;28;20379;-65
2022/12/30 13:21:10;;;;;;;;;;;19.00;45.00;;;;;;5088894;28;20007;-65
2022/12/30 13:23:41;;;;;;;;;;;19.70;43.50;;;;;;5088513;28;19920;-65
2022/12/30 13:26:07;;;;;;;;;;;20.40;42.10;;;;;;5088892;28;20288;-71
2022/12/30 13:28:34;;;;;;;;;;;21.10;40.80;;;;;;5088396;28;19943;-65
2022/12/30 13:33:51;;;;;;;;;;;22.30;39.10;;;;;;5110299;27;19944;-65
2022/12/30 13:36:19;;;;;;;;;;;22.70;38.00;;;;;;5108636;28;19924;-66
2022/12/30 13:41:39;;;;;;;;;;;23.50;36.90;;;;;;5127506;27;1869552;-65
2022/12/30 13:44:10;;;;;;;;;;;23.80;36.50;;;;;;5174753;27;19971;-65
2022/12/30 13:46:35;;;;;;;;;;;24.10;36.10;;;;;;5174463;27;20330;-71
2022/12/30 13:49:06;;;;;;;;;;;24.30;35.70;;;;;;5165856;27;19918;-65
2022/12/30 13:51:32;;;;;;;;;;;24.50;35.50;;;;;;5171926;27;19919;-65
2022/12/30 13:56:43;;;;;;;;;;;24.50;35.20;;;;;;5089933;28;19941;-65
2022/12/30 13:59:28;;;;;;;;;;;24.40;35.20;;;;;;5088830;28;19970;-65
2022/12/30 14:02:14;;;;;;;;;;;24.30;35.40;;;;;;5088432;28;19925;-65
2022/12/30 14:04:55;;;;;;;;;;;24.20;35.50;;;;;;5088500;28;19927;-65
2022/12/30 14:07:42;;;;;;;;;;;24.00;35.90;;;;;;5088476;28;19921;-65
2022/12/30 14:13:15;;;;;;;;;;;23.60;36.30;;;;;;5109679;27;19912;-65
2022/12/30 14:18:31;;;;;;;;;;;23.20;37.00;;;;;;5127350;27;1872872;-65
2022/12/30 14:20:58;;;;;;;;;;;22.90;37.10;;;;;;5174278;27;19971;-65
2022/12/30 14:23:36;;;;;;;;;;;22.60;37.40;;;;;;5174361;27;19922;-65
2022/12/30 14:26:22;;;;;;;;;;;22.40;37.60;;;;;;5174327;27;20393;-65
2022/12/30 14:28:51;;;;;;;;;;;22.10;38.10;;;;;;5174413;27;19964;-71
2022/12/30 14:34:06;;;;;;;;;;;21.70;38.90;;;;;;5089942;28;19945;-65
2022/12/30 14:36:33;;;;;;;;;;;21.40;39.20;;;;;;5088840;28;20330;-72
2022/12/30 14:41:41;;;;;;;;;;;21.00;39.80;;;;;;5110234;27;19912;-65
2022/12/30 14:44:17;;;;;;;;;;;20.80;40.00;;;;;;5109163;28;19920;-65
2022/12/30 14:49:41;;;;;;;;;;;20.60;40.70;;;;;;5110360;27;20097;-65
2022/12/30 14:57:32;;;;;;;;;;;20.30;41.10;;;;;;5110152;27;19941;-66
2022/12/30 15:00:18;;;;;;;;;;;20.20;41.30;;;;;;5108963;28;20208;-65
2022/12/30 15:08:07;;;;;;;;;;;20.00;41.70;;;;;;5127422;27;1869134;-65
2022/12/30 15:16:00;;;;;;;;;;;19.90;42.00;;;;;;5089981;28;20412;-65
2022/12/30 15:18:29;;;;;;;;;;;19.80;42.00;;;;;;5088613;28;19927;-72
2022/12/30 15:20:54;;;;;;;;;;;19.70;42.10;;;;;;5088926;28;19925;-72
2022/12/30 15:23:20;;;;;;;;;;;19.70;42.30;;;;;;5088496;28;19973;-65
2022/12/30 15:26:02;;;;;;;;;;;19.60;42.40;;;;;;5088857;28;19920;-65
2022/12/30 15:28:28;;;;;;;;;;;19.50;42.50;;;;;;5088384;28;19920;-65
2022/12/30 15:30:53;;;;;;;;;;;19.50;42.70;;;;;;5088733;28;19920;-66
2022/12/30 15:33:19;;;;;;;;;;;19.40;42.80;;;;;;5088554;28;19927;-66
2022/12/30 15:35:45;;;;;;;;;;;19.30;43.30;;;;;;5088243;28;20415;-72
2022/12/30 15:38:12;;;;;;;;;;;19.20;43.10;;;;;;5089554;28;19944;-65
2022/12/30 15:40:40;;;;;;;;;;;19.10;43.30;;;;;;5089418;28;19921;-73
2022/12/30 15:43:10;;;;;;;;;;;19.00;43.50;;;;;;5089591;28;19973;-66
2022/12/30 15:45:38;;;;;;;;;;;18.90;43.60;;;;;;5089635;28;19921;-72
2022/12/30 15:48:23;;;;;;;;;;;18.90;43.90;;;;;;5089335;28;19935;-65
2022/12/30 15:50:54;;;;;;;;;;;18.70;44.00;;;;;;5088392;28;20295;-71
2022/12/30 15:53:24;;;;;;;;;;;18.70;44.20;;;;;;5089169;28;20261;-65
2022/12/30 15:55:50;;;;;;;;;;;18.50;44.40;;;;;;5089312;28;19925;-71
2022/12/30 15:58:22;;;;;;;;;;;18.50;44.70;;;;;;5088206;28;19920;-70
2022/12/30 16:00:48;;;;;;;;;;;18.30;44.80;;;;;;5071277;28;19920;-65
2022/12/30 16:03:14;;;;;;;;;;;18.20;45.10;;;;;;5089109;28;20288;-65
2022/12/30 16:05:45;;;;;;;;;;;18.10;45.30;;;;;;5089040;28;19920;-65
2022/12/30 16:08:12;;;;;;;;;;;18.00;45.50;;;;;;5089351;28;20276;-65
2022/12/30 16:10:38;;;;;;;;;;;17.90;45.70;;;;;;5089085;28;20023;-71
2022/12/30 16:13:23;;;;;;;;;;;17.80;46.00;;;;;;5087956;28;20424;-72
2022/12/30 16:15:49;;;;;;;;;;;17.80;46.20;;;;;;5087152;28;19982;-65
2022/12/30 16:18:16;;;;;;;;;;;17.60;46.40;;;;;;5087518;28;19924;-65
2022/12/30 16:21:01;;;;;;;;;;;17.60;46.60;;;;;;5087652;28;20360;-72
2022/12/30 16:26:24;;;;;;;;;;;17.50;47.10;;;;;;5089855;28;19919;-71
2022/12/30 16:28:50;;;;;;;;;;;17.30;47.20;;;;;;5088934;28;19925;-65
2022/12/30 16:31:16;;;;;;;;;;;17.30;47.40;;;;;;5088612;28;20382;-72
2022/12/30 16:33:42;;;;;;;;;;;17.30;47.50;;;;;;5088545;28;19962;-72
2022/12/30 16:36:13;;;;;;;;;;;17.20;47.60;;;;;;5088422;28;19966;-72
2022/12/30 16:38:41;;;;;;;;;;;17.20;47.80;;;;;;5088671;28;19927;-65
2022/12/30 16:41:07;;;;;;;;;;;17.10;47.90;;;;;;5089642;28;20273;-65
2022/12/30 16:43:33;;;;;;;;;;;17.10;48.10;;;;;;5088268;28;19927;-65
2022/12/30 16:45:58;;;;;;;;;;;17.10;48.20;;;;;;5089334;28;19928;-66
2022/12/30 16:48:24;;;;;;;;;;;17.00;48.30;;;;;;5088517;28;19927;-65
2022/12/30 16:50:49;;;;;;;;;;;17.00;48.40;;;;;;5088096;28;20422;-72
2022/12/30 16:53:19;;;;;;;;;;;17.00;48.60;;;;;;5088380;28;19973;-71
2022/12/30 16:55:45;;;;;;;;;;;16.90;48.70;;;;;;5088001;28;20003;-65
2022/12/30 16:58:11;;;;;;;;;;;16.90;48.80;;;;;;5089344;28;20003;-65
2022/12/30 17:00:38;;;;;;;;;;;16.90;48.90;;;;;;5088161;28;19920;-65
2022/12/30 17:03:08;;;;;;;;;;;16.80;49.00;;;;;;5089238;28;19924;-65
2022/12/30 17:05:36;;;;;;;;;;;16.80;49.10;;;;;;5088044;28;19924;-65
2022/12/30 17:08:01;;;;;;;;;;;16.80;49.30;;;;;;5089138;28;20384;-65
2022/12/30 17:10:58;;;;;;;;;;;16.80;49.30;;;;;;5088163;28;19927;-71
2022/12/30 17:13:14;;;;;;;;;;;16.70;49.30;;;;;;5087931;28;20021;-71
2022/12/30 17:15:40;;;;;;;;;;;16.70;49.50;;;;;;5087715;28;19930;-65
2022/12/30 17:18:05;;;;;;;;;;;16.70;49.60;;;;;;5087693;28;19920;-65